Terminal Aerodrome Forecast
Issued by NWS

Home | Current Version | Previous Version | Text Only | Print | Product List | Glossary On
Versions: 1 2 3 4 5 6 7 8 9 10 11 12 13 14 15 16 17 18 19 20 21 22 23 24 25 26 27 28 29 30 31 32 33 34 35 36 37 38 39
000
FTUS45 KSLC 291152 AAA
TAFLGU
TAF AMD
KLGU 291152Z 2912/3012 VRB04KT P6SM VCSH BKN015 BKN040
     FM291400 VRB04KT P6SM VCSH SCT020 BKN040
     FM291600 08005KT P6SM SCT040 BKN080
     FM300300 VRB04KT P6SM BCFG SCT007 SCT080=

USA.gov is the U.S. government's official web portal to all federal, state and local government web resources and services.